Time;durP1;ratioP1;P1;durP2;ratioP2;P2;SDS_P1;SDS_P2;PMS_P1;PMS_P2;Temp;Humidity;BMP_temperature;BMP_pressure;BME280_temperature;BME280_humidity;BME280_pressure;Samples;Min_cycle;Max_cycle;Signal;HPM_P1;HPM_P2
2022/04/08 00:01:44;;;;;;;2.08;0.80;;;8.90;51.30;;;;;;5045109;28;20037;-74
2022/04/08 00:04:10;;;;;;;3.05;0.95;;;8.90;51.40;;;;;;5036966;28;20025;-74
2022/04/08 00:06:36;;;;;;;3.75;1.23;;;8.90;51.50;;;;;;5045372;28;20032;-74
2022/04/08 00:09:02;;;;;;;3.67;1.10;;;8.90;51.60;;;;;;5043696;28;20399;-74
2022/04/08 00:11:28;;;;;;;4.03;1.00;;;8.80;51.50;;;;;;5046014;28;20135;-74
2022/04/08 00:13:54;;;;;;;2.05;0.75;;;8.80;51.50;;;;;;5044997;28;20116;-74
2022/04/08 00:16:20;;;;;;;2.95;0.95;;;8.80;51.60;;;;;;5043636;28;20029;-74
2022/04/08 00:18:47;;;;;;;3.80;1.08;;;8.70;51.50;;;;;;5044387;28;20046;-74
2022/04/08 00:21:14;;;;;;;2.40;0.82;;;8.70;51.60;;;;;;5040957;28;20063;-73
2022/04/08 00:23:40;;;;;;;2.05;0.85;;;8.70;51.60;;;;;;5044115;28;20262;-74
2022/04/08 00:26:06;;;;;;;1.40;0.93;;;8.70;51.70;;;;;;5044582;28;20029;-74
2022/04/08 00:28:31;;;;;;;4.72;1.10;;;8.60;51.60;;;;;;5026691;28;20033;-74
2022/04/08 00:30:57;;;;;;;2.50;0.80;;;8.60;51.70;;;;;;5036604;28;20141;-74
2022/04/08 00:33:23;;;;;;;1.67;0.80;;;8.60;51.80;;;;;;5033285;28;20036;-74
2022/04/08 00:35:49;;;;;;;1.70;1.00;;;8.50;51.60;;;;;;5045497;28;20025;-75
2022/04/08 00:38:15;;;;;;;1.38;0.73;;;8.50;51.70;;;;;;5044270;28;20367;-74
2022/04/08 00:40:41;;;;;;;3.58;0.98;;;8.50;51.70;;;;;;5042227;28;20041;-74
2022/04/08 00:43:15;;;;;;;2.25;0.90;;;8.50;51.80;;;;;;5049004;28;21025;-74
2022/04/08 00:45:41;;;;;;;3.22;0.75;;;8.40;51.70;;;;;;5049477;28;20041;-74
2022/04/08 00:48:08;;;;;;;3.72;1.10;;;8.40;51.70;;;;;;5045969;28;20816;-74
2022/04/08 00:50:39;;;;;;;1.80;0.90;;;8.40;51.70;;;;;;5049978;28;20049;-74
2022/04/08 00:53:06;;;;;;;4.82;1.00;;;8.40;51.90;;;;;;5046906;28;20124;-74
2022/04/08 00:55:34;;;;;;;1.65;0.70;;;8.30;51.70;;;;;;5048672;28;20459;-74
2022/04/08 00:58:04;;;;;;;4.45;1.13;;;8.30;51.80;;;;;;5048563;28;20052;-74
2022/04/08 01:00:38;;;;;;;3.33;1.00;;;8.20;51.70;;;;;;5043393;28;20288;-74
2022/04/08 01:03:05;;;;;;;3.38;1.10;;;8.20;51.70;;;;;;5042134;28;20029;-74
2022/04/08 01:05:34;;;;;;;1.48;0.80;;;8.20;51.80;;;;;;5046425;28;20510;-74
2022/04/08 01:08:01;;;;;;;2.70;0.85;;;8.10;51.70;;;;;;5043558;28;20021;-74
2022/04/08 01:10:27;;;;;;;4.03;0.70;;;8.10;52.30;;;;;;5047504;28;20402;-74
2022/04/08 01:12:53;;;;;;;1.85;0.90;;;8.10;51.80;;;;;;5041987;28;20028;-74
2022/04/08 01:15:21;;;;;;;3.63;1.05;;;8.10;51.90;;;;;;5032171;28;20063;-73
2022/04/08 01:17:47;;;;;;;2.83;1.17;;;8.00;51.70;;;;;;5049163;28;20025;-74
2022/04/08 01:20:14;;;;;;;3.05;1.00;;;8.00;52.10;;;;;;5013106;28;20128;-74
2022/04/08 01:22:40;;;;;;;2.70;0.90;;;8.00;52.50;;;;;;5048543;28;20075;-73
2022/04/08 01:25:08;;;;;;;3.40;0.77;;;7.90;51.80;;;;;;5048215;28;20503;-74
2022/04/08 01:27:37;;;;;;;3.58;0.90;;;7.90;51.80;;;;;;5046770;28;20025;-74
2022/04/08 01:30:06;;;;;;;5.68;1.15;;;7.90;51.90;;;;;;5047966;28;20056;-73
2022/04/08 01:32:32;;;;;;;1.65;0.70;;;7.80;51.70;;;;;;5026297;28;20029;-74
2022/04/08 01:34:58;;;;;;;1.10;0.73;;;7.80;51.80;;;;;;5048611;28;20028;-73
2022/04/08 01:37:24;;;;;;;1.85;0.90;;;7.80;51.80;;;;;;5056604;28;20783;-74
2022/04/08 01:39:50;;;;;;;3.20;0.85;;;7.80;51.90;;;;;;5029688;28;20097;-74
2022/04/08 01:42:21;;;;;;;2.47;0.70;;;7.80;51.90;;;;;;5047899;28;20025;-73
2022/04/08 01:44:48;;;;;;;2.40;0.50;;;7.80;52.00;;;;;;5048702;28;20029;-74
2022/04/08 01:47:14;;;;;;;1.60;0.63;;;7.80;52.00;;;;;;5054335;28;20471;-76
2022/04/08 01:49:40;;;;;;;3.00;1.73;;;7.70;51.80;;;;;;5049847;28;20040;-72
2022/04/08 01:52:07;;;;;;;1.00;0.73;;;7.70;51.90;;;;;;5050362;28;20116;-73
2022/04/08 01:54:33;;;;;;;2.25;0.93;;;7.70;52.00;;;;;;5048507;28;20028;-76
2022/04/08 01:56:58;;;;;;;1.50;0.60;;;7.70;52.00;;;;;;5049927;28;20162;-73
2022/04/08 01:59:24;;;;;;;1.52;0.50;;;7.70;52.00;;;;;;5049673;28;20056;-73
2022/04/08 02:01:50;;;;;;;1.55;0.80;;;7.60;51.80;;;;;;5049788;28;20024;-73
2022/04/08 02:04:16;;;;;;;2.70;0.80;;;7.60;51.90;;;;;;5049414;28;20032;-74
2022/04/08 02:06:42;;;;;;;3.20;0.85;;;7.60;52.00;;;;;;5049938;28;20118;-76
2022/04/08 02:09:10;;;;;;;2.83;0.70;;;7.50;51.80;;;;;;5052457;28;20118;-76
2022/04/08 02:11:36;;;;;;;1.55;0.70;;;7.50;51.90;;;;;;5047818;28;20048;-76
2022/04/08 02:14:03;;;;;;;2.40;0.75;;;7.50;52.00;;;;;;5049279;28;20218;-76
2022/04/08 02:16:30;;;;;;;1.75;0.73;;;7.50;52.10;;;;;;5050262;28;20135;-76
2022/04/08 02:18:57;;;;;;;2.67;0.80;;;7.40;51.90;;;;;;5048636;28;20044;-76
2022/04/08 02:21:23;;;;;;;4.03;0.90;;;7.50;52.10;;;;;;5049985;28;20025;-76
2022/04/08 02:23:50;;;;;;;3.65;1.00;;;7.40;52.00;;;;;;5049634;28;20206;-76
2022/04/08 02:26:16;;;;;;;2.13;0.63;;;7.40;52.10;;;;;;5049492;28;20025;-76
2022/04/08 02:28:46;;;;;;;3.95;1.33;;;7.40;52.10;;;;;;5049694;28;20120;-76
2022/04/08 02:31:12;;;;;;;2.35;0.70;;;7.40;52.10;;;;;;5048941;28;20369;-76
2022/04/08 02:33:38;;;;;;;2.60;0.70;;;7.40;52.20;;;;;;5048840;28;20037;-75
2022/04/08 02:36:05;;;;;;;2.83;0.70;;;7.30;52.00;;;;;;5048883;28;20032;-75
2022/04/08 02:38:31;;;;;;;1.30;0.60;;;7.30;52.00;;;;;;5030673;28;20427;-76
2022/04/08 02:40:57;;;;;;;0.77;0.50;;;7.30;52.10;;;;;;5049610;28;20032;-73
2022/04/08 02:43:23;;;;;;;3.50;0.93;;;7.30;52.10;;;;;;5042497;28;20021;-76
2022/04/08 02:45:49;;;;;;;2.20;0.80;;;7.30;52.10;;;;;;5033158;28;20455;-74
2022/04/08 02:48:15;;;;;;;2.28;0.68;;;7.30;52.20;;;;;;5044646;28;21726;-76
2022/04/08 02:50:42;;;;;;;1.27;0.65;;;7.30;52.20;;;;;;5049041;28;20426;-76
2022/04/08 02:53:08;;;;;;;3.40;0.88;;;7.20;52.00;;;;;;5049028;28;20466;-76
2022/04/08 02:55:35;;;;;;;4.32;0.77;;;7.30;52.20;;;;;;5047880;28;20052;-74
2022/04/08 02:58:02;;;;;;;2.10;0.90;;;7.30;52.30;;;;;;5029003;28;20032;-74
2022/04/08 03:00:28;;;;;;;1.90;1.08;;;7.30;52.40;;;;;;5042217;28;20049;-76
2022/04/08 03:02:54;;;;;;;1.23;0.90;;;7.30;52.30;;;;;;5048309;28;20510;-75
2022/04/08 03:05:20;;;;;;;1.27;0.77;;;7.30;52.40;;;;;;5047758;28;20101;-76
2022/04/08 03:07:46;;;;;;;2.60;0.70;;;7.20;52.20;;;;;;5048971;28;20464;-74
2022/04/08 03:10:13;;;;;;;1.73;0.73;;;7.20;52.30;;;;;;5047730;28;20028;-74
2022/04/08 03:12:38;;;;;;;3.58;1.20;;;7.20;52.30;;;;;;5048602;28;20082;-76
2022/04/08 03:15:05;;;;;;;1.88;0.80;;;7.20;52.40;;;;;;5048586;28;20029;-74
2022/04/08 03:17:31;;;;;;;2.50;0.95;;;7.30;52.60;;;;;;5048153;28;20404;-74
2022/04/08 03:19:57;;;;;;;3.67;0.90;;;7.20;52.40;;;;;;5048159;28;20067;-74
2022/04/08 03:22:24;;;;;;;1.20;0.70;;;7.20;52.50;;;;;;5049202;28;20020;-74
2022/04/08 03:24:51;;;;;;;2.80;0.90;;;7.20;52.50;;;;;;5049657;28;20052;-74
2022/04/08 03:27:17;;;;;;;3.30;0.70;;;7.20;52.50;;;;;;5050418;28;20491;-74
2022/04/08 03:29:44;;;;;;;2.38;0.82;;;7.20;52.60;;;;;;5051874;28;20040;-76
2022/04/08 03:32:11;;;;;;;2.47;0.85;;;7.20;52.60;;;;;;5050555;28;20028;-74
2022/04/08 03:34:37;;;;;;;1.65;0.70;;;7.20;52.60;;;;;;5051655;28;20039;-74
2022/04/08 03:37:04;;;;;;;3.70;0.93;;;7.20;52.60;;;;;;5050597;28;20037;-74
2022/04/08 03:39:30;;;;;;;3.08;0.85;;;7.30;52.80;;;;;;5049323;28;20076;-73
2022/04/08 03:41:57;;;;;;;3.15;1.00;;;7.20;52.60;;;;;;5047513;28;20025;-74
2022/04/08 03:44:23;;;;;;;3.53;0.68;;;7.20;52.70;;;;;;5043896;28;20033;-74
2022/04/08 03:46:49;;;;;;;1.75;0.70;;;7.30;52.90;;;;;;5048675;28;20029;-76
2022/04/08 03:49:16;;;;;;;1.83;0.73;;;7.30;52.90;;;;;;5047146;28;20041;-76
2022/04/08 03:51:46;;;;;;;3.72;0.80;;;7.20;52.80;;;;;;5048452;28;20021;-76
2022/04/08 03:54:13;;;;;;;1.98;0.93;;;7.20;52.80;;;;;;5047977;28;20037;-76
2022/04/08 03:56:41;;;;;;;1.63;0.90;;;7.20;52.80;;;;;;5048008;28;20523;-75
2022/04/08 03:59:08;;;;;;;2.13;0.90;;;7.20;52.90;;;;;;5047893;28;20033;-75
2022/04/08 04:01:35;;;;;;;3.00;0.75;;;7.20;52.90;;;;;;5048069;28;20033;-75
2022/04/08 04:06:56;;;;;;;2.20;0.65;;;7.10;52.80;;;;;;5015545;23;20502;-94
2022/04/08 04:09:22;;;;;;;1.90;0.82;;;7.10;52.80;;;;;;4915349;29;20020;-94
2022/04/08 04:11:48;;;;;;;3.10;0.93;;;7.10;52.90;;;;;;4914253;29;20063;-95
2022/04/08 04:14:13;;;;;;;3.22;1.38;;;7.10;52.90;;;;;;4917052;29;20028;-95
2022/04/08 04:16:40;;;;;;;1.50;0.60;;;7.10;53.00;;;;;;4917849;29;20087;-95
2022/04/08 04:19:06;;;;;;;1.52;0.68;;;7.10;53.00;;;;;;4882275;29;20028;-95
2022/04/08 04:21:33;;;;;;;1.60;0.65;;;7.10;53.60;;;;;;4921441;29;20031;-93
2022/04/08 04:23:58;;;;;;;2.17;0.98;;;7.10;53.10;;;;;;4915737;29;20028;-94
2022/04/08 04:26:24;;;;;;;2.13;0.77;;;7.10;53.70;;;;;;4904031;29;20062;-93
2022/04/08 04:28:50;;;;;;;2.83;0.75;;;7.10;53.10;;;;;;4905135;29;20039;-94
2022/04/08 04:31:16;;;;;;;1.05;0.65;;;7.00;52.90;;;;;;4907404;29;20056;-93
2022/04/08 04:33:42;;;;;;;2.83;1.00;;;7.00;52.90;;;;;;4926117;29;20040;-93
2022/04/08 04:36:08;;;;;;;1.15;0.70;;;7.10;53.10;;;;;;4920157;29;20397;-92
2022/04/08 04:38:34;;;;;;;2.58;0.88;;;7.10;53.20;;;;;;4907075;29;20032;-92
2022/04/08 04:40:59;;;;;;;2.40;0.60;;;7.00;53.00;;;;;;4913026;29;20040;-89
2022/04/08 04:43:25;;;;;;;3.88;0.90;;;7.00;53.00;;;;;;4911705;29;20395;-89
2022/04/08 04:45:51;;;;;;;3.65;0.82;;;7.00;53.10;;;;;;4914229;29;20036;-88
2022/04/08 04:48:18;;;;;;;1.50;0.70;;;7.00;53.10;;;;;;4910092;29;20032;-89
2022/04/08 04:50:44;;;;;;;2.55;0.90;;;7.00;53.10;;;;;;4907678;29;20067;-89
2022/04/08 04:53:10;;;;;;;1.45;0.88;;;7.00;53.10;;;;;;4911038;29;20076;-91
2022/04/08 04:55:36;;;;;;;2.75;0.93;;;7.00;53.10;;;;;;4912109;29;20507;-90
2022/04/08 04:58:02;;;;;;;1.77;0.80;;;7.00;53.20;;;;;;4899317;29;20479;-91
2022/04/08 05:00:28;;;;;;;2.05;0.75;;;7.00;53.20;;;;;;4912324;29;20151;-90
2022/04/08 05:02:54;;;;;;;2.67;0.90;;;7.00;53.20;;;;;;4911711;29;20055;-90
2022/04/08 05:05:20;;;;;;;1.67;0.60;;;7.00;53.20;;;;;;4895250;29;20135;-88
2022/04/08 05:07:46;;;;;;;2.00;1.30;;;7.10;53.40;;;;;;4894458;29;20135;-89
2022/04/08 05:10:12;;;;;;;1.48;0.80;;;7.00;53.30;;;;;;4892597;29;20547;-90
2022/04/08 05:12:38;;;;;;;3.17;1.13;;;7.00;53.30;;;;;;4915532;29;20031;-91
2022/04/08 05:15:06;;;;;;;3.50;1.25;;;7.00;53.30;;;;;;4904759;29;20038;-91
2022/04/08 05:17:35;;;;;;;2.97;0.98;;;7.00;53.40;;;;;;4895808;29;20039;-89
2022/04/08 05:20:05;;;;;;;3.08;1.23;;;7.00;53.40;;;;;;4909215;29;20567;-90
2022/04/08 05:22:32;;;;;;;3.13;1.05;;;7.10;53.60;;;;;;4897360;29;20095;-90
2022/04/08 05:24:59;;;;;;;1.52;0.88;;;7.10;53.60;;;;;;4917496;29;20036;-93
2022/04/08 05:27:26;;;;;;;4.75;1.02;;;7.10;53.60;;;;;;4917095;29;20060;-89
2022/04/08 05:29:53;;;;;;;2.72;1.10;;;7.10;53.60;;;;;;4894224;29;20162;-87
2022/04/08 05:32:19;;;;;;;2.05;0.70;;;7.10;53.70;;;;;;4898280;29;20099;-84
2022/04/08 05:34:44;;;;;;;2.60;1.00;;;7.10;53.70;;;;;;4915266;29;20141;-85
2022/04/08 05:37:12;;;;;;;2.92;0.88;;;7.10;53.70;;;;;;4914578;29;20048;-84
2022/04/08 05:39:38;;;;;;;5.63;1.52;;;7.10;53.70;;;;;;4907880;29;20046;-86
2022/04/08 05:42:05;;;;;;;3.58;1.20;;;7.10;53.70;;;;;;4914295;29;20195;-84
2022/04/08 05:44:31;;;;;;;3.55;1.05;;;7.20;54.40;;;;;;4888615;29;20028;-81
2022/04/08 05:46:57;;;;;;;2.75;0.75;;;7.30;55.60;;;;;;4917452;29;20040;-79
2022/04/08 05:49:23;;;;;;;1.70;0.85;;;7.60;56.40;;;;;;4912462;29;20427;-81
2022/04/08 05:51:49;;;;;;;3.13;0.90;;;7.80;56.50;;;;;;4913220;29;20586;-80
2022/04/08 05:54:15;;;;;;;1.77;1.20;;;8.00;56.70;;;;;;4912702;29;20334;-81
2022/04/08 05:56:40;;;;;;;1.27;0.90;;;8.00;56.50;;;;;;4901598;29;20410;-79
2022/04/08 05:59:06;;;;;;;2.70;0.95;;;8.00;56.40;;;;;;4895843;29;20447;-81
2022/04/08 06:01:32;;;;;;;2.67;1.05;;;8.10;56.50;;;;;;4891145;29;20039;-84
2022/04/08 06:03:58;;;;;;;5.25;1.02;;;8.00;56.40;;;;;;4905865;29;20127;-82
2022/04/08 06:06:24;;;;;;;2.50;0.82;;;8.00;56.40;;;;;;4906914;29;20120;-80
2022/04/08 06:08:50;;;;;;;2.55;1.20;;;8.00;56.60;;;;;;4902909;29;20391;-81
2022/04/08 06:11:15;;;;;;;3.30;1.10;;;8.00;56.60;;;;;;4896759;29;20224;-82
2022/04/08 06:13:41;;;;;;;1.38;0.88;;;8.00;56.70;;;;;;4899782;29;20361;-81
2022/04/08 06:16:07;;;;;;;3.83;1.35;;;8.00;56.70;;;;;;4911444;29;20027;-79
2022/04/08 06:18:33;;;;;;;1.75;1.10;;;8.00;56.70;;;;;;4912224;29;20521;-81
2022/04/08 06:21:01;;;;;;;1.70;1.15;;;8.00;56.70;;;;;;4903570;29;20127;-86
2022/04/08 06:23:27;;;;;;;3.95;1.30;;;8.00;56.70;;;;;;4886385;29;20032;-83
2022/04/08 06:25:53;;;;;;;3.17;1.40;;;8.00;56.60;;;;;;4905591;29;20044;-89
2022/04/08 06:28:19;;;;;;;4.53;1.23;;;8.00;56.60;;;;;;4906342;29;20411;-87
2022/04/08 06:30:44;;;;;;;2.83;1.23;;;8.00;56.50;;;;;;4904699;29;20128;-88
2022/04/08 06:33:10;;;;;;;1.60;0.90;;;8.00;56.50;;;;;;4902411;29;20048;-87
2022/04/08 06:35:37;;;;;;;2.63;1.33;;;8.10;56.60;;;;;;4890059;29;20028;-85
2022/04/08 06:38:05;;;;;;;2.90;1.30;;;8.10;56.60;;;;;;4907303;29;20035;-83
2022/04/08 06:40:38;;;;;;;4.00;1.50;;;8.10;56.60;;;;;;4908491;29;20044;-82
2022/04/08 06:43:05;;;;;;;2.70;1.40;;;8.10;56.50;;;;;;4895316;29;20534;-83
2022/04/08 06:45:32;;;;;;;3.35;1.52;;;8.20;56.60;;;;;;4906398;29;20656;-81
2022/04/08 06:47:58;;;;;;;2.92;1.95;;;8.20;56.60;;;;;;4908510;29;20219;-82
2022/04/08 06:50:25;;;;;;;2.38;1.33;;;8.20;56.50;;;;;;4923092;29;20024;-84
2022/04/08 06:52:51;;;;;;;2.80;1.15;;;8.20;56.40;;;;;;4913093;29;20040;-82
2022/04/08 06:55:17;;;;;;;5.57;1.67;;;8.30;56.50;;;;;;4902990;29;20034;-87
2022/04/08 06:57:43;;;;;;;2.85;1.40;;;8.30;56.40;;;;;;4922061;29;20028;-82
2022/04/08 07:00:11;;;;;;;3.78;1.73;;;8.30;56.40;;;;;;4908692;29;20040;-86
2022/04/08 07:02:38;;;;;;;2.58;1.30;;;8.40;56.50;;;;;;4915927;29;20757;-85
2022/04/08 07:05:04;;;;;;;2.88;1.33;;;8.40;56.40;;;;;;4897258;29;20059;-84
2022/04/08 07:07:35;;;;;;;5.53;1.60;;;8.40;56.40;;;;;;4915582;29;20494;-85
2022/04/08 07:10:03;;;;;;;1.58;1.35;;;8.50;56.60;;;;;;4893243;29;20143;-83
2022/04/08 07:12:28;;;;;;;5.28;2.00;;;8.50;56.40;;;;;;4894911;29;20031;-89
2022/04/08 07:14:55;;;;;;;4.75;1.40;;;8.50;56.40;;;;;;4892273;29;20040;-86
2022/04/08 07:17:35;;;;;;;4.20;1.50;;;8.60;56.50;;;;;;4892044;29;20035;-87
2022/04/08 07:20:01;;;;;;;3.50;1.80;;;8.60;56.50;;;;;;4907400;29;20048;-82
2022/04/08 07:22:27;;;;;;;6.57;1.90;;;8.70;56.50;;;;;;4907658;29;20359;-85
2022/04/08 07:24:54;;;;;;;2.95;1.60;;;8.70;56.40;;;;;;4907666;29;20040;-85
2022/04/08 07:27:21;;;;;;;4.43;1.85;;;8.80;56.50;;;;;;4891645;29;20115;-82
2022/04/08 07:29:48;;;;;;;4.63;1.55;;;8.90;56.60;;;;;;4904141;29;20047;-84
2022/04/08 07:32:20;;;;;;;4.32;2.10;;;8.90;56.50;;;;;;4900902;29;20543;-83
2022/04/08 07:34:52;;;;;;;2.70;1.52;;;8.90;56.40;;;;;;4902379;29;20051;-83
2022/04/08 07:37:30;;;;;;;3.65;1.90;;;9.00;56.50;;;;;;4900449;29;20032;-83
2022/04/08 07:39:56;;;;;;;3.30;1.58;;;9.10;56.50;;;;;;4913125;29;20047;-86
2022/04/08 07:42:23;;;;;;;6.45;1.58;;;9.20;56.60;;;;;;4908806;29;20510;-85
2022/04/08 07:44:49;;;;;;;3.78;1.65;;;9.20;56.40;;;;;;4908670;29;20036;-85
2022/04/08 07:47:15;;;;;;;4.50;1.60;;;9.30;56.40;;;;;;4908257;29;20032;-85
2022/04/08 07:49:42;;;;;;;7.05;3.10;;;9.40;56.50;;;;;;4908739;29;20036;-84
2022/04/08 07:52:08;;;;;;;5.28;2.13;;;9.50;56.50;;;;;;4908522;29;20036;-84
2022/04/08 07:54:34;;;;;;;4.10;2.20;;;9.60;56.50;;;;;;4892067;29;20103;-84
2022/04/08 07:57:00;;;;;;;4.15;1.80;;;9.70;56.60;;;;;;4908594;29;20373;-84
2022/04/08 07:59:26;;;;;;;5.32;1.90;;;9.70;56.40;;;;;;4913282;29;20487;-84
2022/04/08 08:01:51;;;;;;;4.90;2.22;;;9.80;56.50;;;;;;4908290;29;20055;-89
2022/04/08 08:04:17;;;;;;;4.70;1.95;;;9.90;56.50;;;;;;4915271;29;20036;-88
2022/04/08 08:06:43;;;;;;;3.25;1.98;;;10.00;56.50;;;;;;4909606;29;20513;-85
2022/04/08 08:09:09;;;;;;;6.22;2.35;;;10.10;56.50;;;;;;4909517;29;20044;-82
2022/04/08 08:11:35;;;;;;;3.33;1.90;;;10.10;56.30;;;;;;4908941;29;20040;-84
2022/04/08 08:14:01;;;;;;;5.80;1.92;;;10.20;56.30;;;;;;4905847;29;20029;-83
2022/04/08 08:16:27;;;;;;;5.43;1.98;;;10.30;56.30;;;;;;4908262;29;20088;-82
2022/04/08 08:18:56;;;;;;;5.60;1.90;;;10.40;56.30;;;;;;4891495;29;20032;-83
2022/04/08 08:21:26;;;;;;;3.60;1.50;;;10.50;56.40;;;;;;4908040;29;20099;-87
2022/04/08 08:23:52;;;;;;;5.57;1.55;;;10.60;56.20;;;;;;4904425;29;20040;-88
2022/04/08 08:26:18;;;;;;;5.32;1.75;;;10.80;56.40;;;;;;4907278;29;20036;-85
2022/04/08 08:28:44;;;;;;;5.90;1.70;;;10.80;56.10;;;;;;4900945;29;20039;-86
2022/04/08 08:31:10;;;;;;;4.72;2.00;;;10.90;55.90;;;;;;4904310;29;20123;-87
2022/04/08 08:33:36;;;;;;;5.30;1.75;;;11.10;56.10;;;;;;4894188;29;20060;-83
2022/04/08 08:36:02;;;;;;;5.85;1.70;;;11.10;55.80;;;;;;4905700;29;20092;-85
2022/04/08 08:38:28;;;;;;;6.35;1.90;;;11.30;55.90;;;;;;4907319;29;20062;-86
2022/04/08 08:40:55;;;;;;;8.77;2.60;;;11.40;55.90;;;;;;4908439;29;20656;-89
2022/04/08 08:43:21;;;;;;;5.03;1.88;;;11.50;55.80;;;;;;4901209;29;20471;-86
2022/04/08 08:45:49;;;;;;;4.75;1.90;;;11.60;55.70;;;;;;4914431;29;20043;-87
2022/04/08 08:48:15;;;;;;;4.68;1.50;;;11.70;55.60;;;;;;4915314;29;20036;-88
2022/04/08 08:50:47;;;;;;;6.82;1.88;;;11.80;55.60;;;;;;4890762;29;20040;-84
2022/04/08 08:53:18;;;;;;;7.18;1.80;;;11.90;55.50;;;;;;4890813;29;20024;-84
2022/04/08 08:55:45;;;;;;;3.40;2.13;;;11.90;55.20;;;;;;4884527;29;20036;-84
2022/04/08 08:58:11;;;;;;;4.70;1.77;;;12.00;55.20;;;;;;4904374;29;20450;-84
2022/04/08 09:00:37;;;;;;;3.47;1.50;;;12.10;55.10;;;;;;4910961;29;20052;-84
2022/04/08 09:03:03;;;;;;;4.75;1.40;;;12.20;55.10;;;;;;4912302;29;20032;-84
2022/04/08 09:05:29;;;;;;;2.47;1.35;;;12.30;55.00;;;;;;4911645;29;20820;-83
2022/04/08 09:08:00;;;;;;;3.63;1.40;;;12.40;55.00;;;;;;4912951;29;20204;-87
2022/04/08 09:10:33;;;;;;;4.60;1.25;;;12.50;54.90;;;;;;4908989;29;20088;-86
2022/04/08 09:13:02;;;;;;;;;;;12.60;55.30;;;;;;4895620;29;20032;-86
2022/04/08 09:15:29;;;;;;;2.53;1.20;;;12.70;54.70;;;;;;4904939;29;19926;-85
2022/04/08 09:18:14;;;;;;;4.25;1.33;;;12.80;54.70;;;;;;4902692;29;20039;-85
2022/04/08 09:20:45;;;;;;;4.00;1.77;;;12.90;54.50;;;;;;4911404;29;20067;-85
2022/04/08 09:23:13;;;;;;;4.82;1.67;;;13.00;54.50;;;;;;4914590;29;20036;-83
2022/04/08 09:25:39;;;;;;;5.30;1.92;;;13.10;54.50;;;;;;4906118;29;20496;-84
2022/04/08 09:28:13;;;;;;;4.60;2.17;;;13.10;54.30;;;;;;4874475;29;20044;-86
2022/04/08 09:30:40;;;;;;;3.20;1.48;;;13.10;54.70;;;;;;4899037;29;20024;-88
2022/04/08 09:33:18;;;;;;;3.70;1.58;;;13.20;54.20;;;;;;4915351;29;20036;-86
2022/04/08 09:35:45;;;;;;;3.40;1.42;;;13.30;54.10;;;;;;4921849;29;20173;-91
2022/04/08 09:38:16;;;;;;;6.35;2.05;;;13.30;53.90;;;;;;4895943;29;20175;-86
2022/04/08 09:40:42;;;;;;;4.00;1.52;;;13.40;53.90;;;;;;4894181;29;20043;-88
2022/04/08 09:43:08;;;;;;;3.25;1.33;;;13.40;53.70;;;;;;4883607;29;20024;-86
2022/04/08 09:45:38;;;;;;;3.25;1.52;;;13.40;53.50;;;;;;4916581;29;20040;-91
2022/04/08 09:48:06;;;;;;;4.85;1.23;;;13.40;53.50;;;;;;4911908;29;20059;-85
2022/04/08 09:50:33;;;;;;;4.82;1.77;;;13.40;53.30;;;;;;4904287;29;20039;-89
2022/04/08 09:53:02;;;;;;;5.25;1.40;;;13.50;53.40;;;;;;4902048;29;20135;-88
2022/04/08 09:55:29;;;;;;;8.13;1.73;;;13.50;53.30;;;;;;4910438;29;20527;-89
2022/04/08 09:58:04;;;;;;;6.22;1.25;;;13.60;53.20;;;;;;4911959;29;20060;-88
2022/04/08 10:00:32;;;;;;;4.72;1.20;;;13.70;53.00;;;;;;4909849;29;20072;-89
2022/04/08 10:03:01;;;;;;;4.43;1.40;;;13.90;53.00;;;;;;4905918;29;20042;-88
2022/04/08 10:05:28;;;;;;;4.82;1.42;;;14.10;52.90;;;;;;4896791;29;20068;-89
2022/04/08 10:07:56;;;;;;;5.80;1.90;;;14.20;52.70;;;;;;4886518;29;20097;-85
2022/04/08 10:10:34;;;;;;;5.55;1.50;;;14.40;52.70;;;;;;4926810;29;20043;-85
2022/04/08 10:13:38;;;;;;;5.97;1.40;;;14.50;52.40;;;;;;4930965;29;20051;-92
2022/04/08 10:16:17;;;;;;;6.55;2.33;;;14.60;52.10;;;;;;4927786;29;20059;-91
2022/04/08 10:18:44;;;;;;;3.50;1.40;;;14.80;52.30;;;;;;4930538;29;20013;-87
2022/04/08 10:21:10;;;;;;;5.07;1.25;;;14.90;52.80;;;;;;4937641;29;20035;-89
2022/04/08 10:23:53;;;;;;;5.00;1.75;;;14.90;52.00;;;;;;4899231;29;20251;-85
2022/04/08 10:26:23;;;;;;;;;;;15.10;52.10;;;;;;4935677;29;20016;-88
2022/04/08 10:28:54;;;;;;;3.47;1.40;;;15.20;52.10;;;;;;4931529;29;20274;-88
2022/04/08 10:31:25;;;;;;;6.03;2.05;;;15.40;52.20;;;;;;4923093;29;20465;-87
2022/04/08 10:33:56;;;;;;;1.80;1.05;;;15.50;52.00;;;;;;4917057;29;20251;-88
2022/04/08 10:36:37;;;;;;;3.58;1.40;;;15.80;52.00;;;;;;4910766;29;20085;-88
2022/04/08 10:39:17;;;;;;;4.55;2.00;;;16.00;51.80;;;;;;4914091;29;20043;-87
2022/04/08 10:41:50;;;;;;;3.70;1.55;;;16.30;51.80;;;;;;4889019;29;20122;-88
2022/04/08 10:44:30;;;;;;;5.15;1.27;;;16.50;51.70;;;;;;4910684;29;20028;-89
2022/04/08 10:47:00;;;;;;;2.70;1.30;;;16.70;51.40;;;;;;4907584;29;20243;-88
2022/04/08 10:49:27;;;;;;;6.13;1.45;;;17.00;51.40;;;;;;4929915;29;20059;-89
2022/04/08 10:51:53;;;;;;;3.72;1.30;;;17.10;51.40;;;;;;4908535;29;20056;-87
2022/04/08 10:54:20;;;;;;;4.43;1.65;;;17.30;51.40;;;;;;4910629;29;20074;-93
2022/04/08 10:56:58;;;;;;;4.18;1.52;;;17.40;51.30;;;;;;4925332;29;20063;-90
2022/04/08 10:59:26;;;;;;;3.28;1.20;;;17.50;50.90;;;;;;4884298;29;20099;-89
2022/04/08 11:02:05;;;;;;;5.03;1.27;;;17.50;50.90;;;;;;4924971;29;20043;-91
2022/04/08 11:04:32;;;;;;;5.18;2.00;;;17.50;50.60;;;;;;4924905;29;20040;-89
2022/04/08 11:07:06;;;;;;;4.13;1.25;;;17.60;50.70;;;;;;4901663;29;20051;-89
2022/04/08 11:09:33;;;;;;;2.13;1.15;;;17.60;50.30;;;;;;4889765;29;20628;-88
2022/04/08 11:11:59;;;;;;;3.38;1.40;;;17.60;50.30;;;;;;4910997;29;20032;-89
2022/04/08 11:14:27;;;;;;;6.38;1.60;;;17.70;50.20;;;;;;4893260;29;20024;-86
2022/04/08 11:16:53;;;;;;;4.88;1.48;;;17.70;49.90;;;;;;4911346;29;20307;-96
2022/04/08 11:19:21;;;;;;;3.47;1.58;;;17.80;49.80;;;;;;4911523;29;20043;-92
2022/04/08 11:21:48;;;;;;;3.13;1.20;;;17.80;49.50;;;;;;4910446;29;20040;-86
2022/04/08 11:24:16;;;;;;;3.60;1.70;;;17.80;49.20;;;;;;4900228;29;20035;-92
2022/04/08 11:26:44;;;;;;;2.08;1.25;;;17.90;49.30;;;;;;4891304;29;20028;-92
2022/04/08 11:29:12;;;;;;;3.25;1.48;;;17.90;49.10;;;;;;4892218;29;20036;-95
2022/04/08 11:31:39;;;;;;;4.35;1.27;;;18.00;49.00;;;;;;4892668;29;20032;-90
2022/04/08 11:34:06;;;;;;;5.90;1.63;;;18.10;48.90;;;;;;4892043;29;20032;-92
2022/04/08 11:36:33;;;;;;;3.85;1.40;;;18.20;48.70;;;;;;4895224;29;20696;-92
2022/04/08 11:38:59;;;;;;;6.05;1.27;;;18.40;48.70;;;;;;4903136;29;20035;-88
2022/04/08 11:41:27;;;;;;;3.33;1.73;;;18.50;48.50;;;;;;4895295;29;20048;-93
2022/04/08 11:43:54;;;;;;;5.03;1.60;;;18.50;48.20;;;;;;4908857;29;20032;-92
2022/04/08 11:46:20;;;;;;;3.47;1.38;;;18.60;48.10;;;;;;4907014;29;20040;-92
2022/04/08 11:48:46;;;;;;;4.40;1.35;;;18.60;47.80;;;;;;4910898;29;20071;-94
2022/04/08 11:51:12;;;;;;;6.88;1.45;;;18.70;47.80;;;;;;4910181;29;20116;-90
2022/04/08 11:53:46;;;;;;;2.80;1.02;;;18.80;47.60;;;;;;4909586;29;20079;-89
2022/04/08 11:56:33;;;;;;;3.38;1.20;;;18.90;47.40;;;;;;4893007;29;20601;-92
2022/04/08 11:59:01;;;;;;;3.20;1.65;;;19.00;47.40;;;;;;4889027;29;20070;-90
2022/04/08 12:01:35;;;;;;;5.45;1.40;;;19.10;47.20;;;;;;4891462;29;20058;-89
2022/04/08 12:04:10;;;;;;;3.90;1.52;;;19.30;47.20;;;;;;4891716;29;20088;-94
2022/04/08 12:06:47;;;;;;;4.07;1.38;;;19.40;47.00;;;;;;4912047;29;20060;-91
2022/04/08 12:09:14;;;;;;;2.00;1.00;;;19.50;46.60;;;;;;4910205;29;20054;-93
2022/04/08 12:11:43;;;;;;;3.47;1.75;;;19.60;46.60;;;;;;4877235;29;20031;-95
2022/04/08 12:14:10;;;;;;;2.70;1.02;;;19.70;46.50;;;;;;4907569;29;20050;-90
2022/04/08 12:16:37;;;;;;;3.75;1.38;;;19.70;46.40;;;;;;4903809;29;20032;-91
2022/04/08 12:19:05;;;;;;;4.13;1.23;;;19.60;46.70;;;;;;4908050;29;20039;-90
2022/04/08 12:21:32;;;;;;;4.38;1.65;;;19.50;45.90;;;;;;4908462;29;20044;-91
2022/04/08 12:24:02;;;;;;;4.00;1.45;;;19.50;46.00;;;;;;4915252;29;20511;-92
2022/04/08 12:26:34;;;;;;;6.50;1.50;;;19.40;45.70;;;;;;4908787;29;20131;-90
2022/04/08 12:29:08;;;;;;;3.72;1.42;;;19.40;45.60;;;;;;4894590;29;20158;-89
2022/04/08 12:31:47;;;;;;;3.38;1.15;;;19.40;45.50;;;;;;4897922;29;20458;-89
2022/04/08 12:34:17;;;;;;;5.38;2.00;;;19.40;45.40;;;;;;4915718;29;20032;-90
2022/04/08 12:36:44;;;;;;;3.13;1.13;;;19.40;45.60;;;;;;4878238;29;20130;-90
2022/04/08 12:39:11;;;;;;;3.42;1.77;;;19.30;45.30;;;;;;4894598;29;20397;-90
2022/04/08 12:41:41;;;;;;;2.47;1.23;;;19.30;45.20;;;;;;4900874;29;20039;-93
2022/04/08 12:44:08;;;;;;;2.13;0.82;;;19.30;45.20;;;;;;4882424;29;20008;-92
2022/04/08 12:46:35;;;;;;;3.53;1.17;;;19.30;45.30;;;;;;4894838;29;20443;-88
2022/04/08 12:49:01;;;;;;;2.75;1.02;;;19.40;45.30;;;;;;4902270;29;20036;-90
2022/04/08 12:51:28;;;;;;;2.13;0.70;;;19.40;45.30;;;;;;4907042;29;20025;-89
2022/04/08 12:53:55;;;;;;;3.08;1.58;;;19.50;45.40;;;;;;4910608;29;20043;-92
2022/04/08 12:56:20;;;;;;;2.92;1.13;;;19.60;45.40;;;;;;4880925;29;20036;-92
2022/04/08 12:58:46;;;;;;;4.35;0.82;;;19.70;45.50;;;;;;4909233;29;20264;-91